sensor_id;sensor_type;location;lat;lon;timestamp;P1;durP1;ratioP1;P2;durP2;ratioP2
31464;SDS011;18089;47.428;15.006;2022-12-07T00:02:22;51.17;;;34.33;;
31464;SDS011;18089;47.428;15.006;2022-12-07T00:04:54;54.53;;;34.07;;
31464;SDS011;18089;47.428;15.006;2022-12-07T00:07:26;49.53;;;34.13;;
31464;SDS011;18089;47.428;15.006;2022-12-07T00:09:58;50.80;;;34.73;;
31464;SDS011;18089;47.428;15.006;2022-12-07T00:12:30;50.50;;;34.43;;
31464;SDS011;18089;47.428;15.006;2022-12-07T00:15:03;49.87;;;33.73;;
31464;SDS011;18089;47.428;15.006;2022-12-07T00:17:36;53.10;;;35.00;;
31464;SDS011;18089;47.428;15.006;2022-12-07T00:20:08;51.10;;;33.43;;
31464;SDS011;18089;47.428;15.006;2022-12-07T00:22:41;45.47;;;32.53;;
31464;SDS011;18089;47.428;15.006;2022-12-07T00:25:13;54.17;;;35.60;;
31464;SDS011;18089;47.428;15.006;2022-12-07T00:27:45;52.97;;;35.30;;
31464;SDS011;18089;47.428;15.006;2022-12-07T00:30:18;57.10;;;35.90;;
31464;SDS011;18089;47.428;15.006;2022-12-07T00:32:50;53.73;;;34.23;;
31464;SDS011;18089;47.428;15.006;2022-12-07T00:35:22;47.87;;;34.30;;
31464;SDS011;18089;47.428;15.006;2022-12-07T00:37:54;50.73;;;33.30;;
31464;SDS011;18089;47.428;15.006;2022-12-07T00:40:26;52.10;;;35.43;;
31464;SDS011;18089;47.428;15.006;2022-12-07T00:42:58;49.93;;;34.27;;
31464;SDS011;18089;47.428;15.006;2022-12-07T00:45:31;50.97;;;34.80;;
31464;SDS011;18089;47.428;15.006;2022-12-07T00:48:03;50.33;;;33.93;;
31464;SDS011;18089;47.428;15.006;2022-12-07T00:50:36;48.57;;;33.70;;
31464;SDS011;18089;47.428;15.006;2022-12-07T00:53:08;46.67;;;31.70;;
31464;SDS011;18089;47.428;15.006;2022-12-07T00:55:40;50.87;;;32.63;;
31464;SDS011;18089;47.428;15.006;2022-12-07T00:58:12;46.40;;;31.93;;
31464;SDS011;18089;47.428;15.006;2022-12-07T01:00:45;43.63;;;30.47;;
31464;SDS011;18089;47.428;15.006;2022-12-07T01:03:17;37.77;;;29.13;;
31464;SDS011;18089;47.428;15.006;2022-12-07T01:05:50;40.40;;;29.37;;
31464;SDS011;18089;47.428;15.006;2022-12-07T01:08:23;40.33;;;30.20;;
31464;SDS011;18089;47.428;15.006;2022-12-07T01:10:59;39.70;;;30.53;;
31464;SDS011;18089;47.428;15.006;2022-12-07T01:13:32;40.37;;;30.03;;
31464;SDS011;18089;47.428;15.006;2022-12-07T01:16:07;44.10;;;29.47;;
31464;SDS011;18089;47.428;15.006;2022-12-07T01:18:40;38.83;;;28.93;;
31464;SDS011;18089;47.428;15.006;2022-12-07T01:21:13;46.80;;;30.97;;
31464;SDS011;18089;47.428;15.006;2022-12-07T01:23:47;41.80;;;31.23;;
31464;SDS011;18089;47.428;15.006;2022-12-07T01:26:20;40.10;;;29.90;;
31464;SDS011;18089;47.428;15.006;2022-12-07T01:28:53;41.40;;;31.10;;
31464;SDS011;18089;47.428;15.006;2022-12-07T01:31:27;45.23;;;30.97;;
31464;SDS011;18089;47.428;15.006;2022-12-07T01:33:59;44.77;;;30.90;;
31464;SDS011;18089;47.428;15.006;2022-12-07T01:36:32;46.57;;;33.33;;
31464;SDS011;18089;47.428;15.006;2022-12-07T01:39:06;48.50;;;33.70;;
31464;SDS011;18089;47.428;15.006;2022-12-07T01:41:39;43.17;;;32.90;;
31464;SDS011;18089;47.428;15.006;2022-12-07T01:44:15;40.73;;;30.47;;
31464;SDS011;18089;47.428;15.006;2022-12-07T01:46:50;44.33;;;30.57;;
31464;SDS011;18089;47.428;15.006;2022-12-07T01:49:28;42.60;;;30.63;;
31464;SDS011;18089;47.428;15.006;2022-12-07T01:52:04;40.30;;;29.73;;
31464;SDS011;18089;47.428;15.006;2022-12-07T01:54:41;39.37;;;28.97;;
31464;SDS011;18089;47.428;15.006;2022-12-07T01:57:14;43.53;;;29.60;;
31464;SDS011;18089;47.428;15.006;2022-12-07T01:59:47;43.93;;;31.10;;
31464;SDS011;18089;47.428;15.006;2022-12-07T02:02:22;43.27;;;30.50;;
31464;SDS011;18089;47.428;15.006;2022-12-07T02:04:57;40.27;;;28.83;;
31464;SDS011;18089;47.428;15.006;2022-12-07T02:07:31;42.10;;;29.47;;
31464;SDS011;18089;47.428;15.006;2022-12-07T02:10:11;41.07;;;30.70;;
31464;SDS011;18089;47.428;15.006;2022-12-07T02:12:44;37.13;;;28.27;;
31464;SDS011;18089;47.428;15.006;2022-12-07T02:15:18;45.00;;;31.27;;
31464;SDS011;18089;47.428;15.006;2022-12-07T02:17:54;40.97;;;29.60;;
31464;SDS011;18089;47.428;15.006;2022-12-07T02:20:32;42.33;;;29.40;;
31464;SDS011;18089;47.428;15.006;2022-12-07T02:29:35;38.37;;;28.10;;
31464;SDS011;18089;47.428;15.006;2022-12-07T02:32:12;39.93;;;28.17;;
31464;SDS011;18089;47.428;15.006;2022-12-07T02:34:48;38.47;;;28.73;;
31464;SDS011;18089;47.428;15.006;2022-12-07T02:37:25;38.30;;;28.47;;
31464;SDS011;18089;47.428;15.006;2022-12-07T02:40:04;37.00;;;27.33;;
31464;SDS011;18089;47.428;15.006;2022-12-07T02:42:40;37.27;;;27.87;;
31464;SDS011;18089;47.428;15.006;2022-12-07T02:45:16;35.50;;;27.30;;
31464;SDS011;18089;47.428;15.006;2022-12-07T02:47:50;36.50;;;26.40;;
31464;SDS011;18089;47.428;15.006;2022-12-07T02:50:23;29.00;;;24.27;;
31464;SDS011;18089;47.428;15.006;2022-12-07T02:52:56;26.87;;;22.30;;
31464;SDS011;18089;47.428;15.006;2022-12-07T02:55:28;29.77;;;23.37;;
31464;SDS011;18089;47.428;15.006;2022-12-07T02:58:06;25.93;;;22.37;;
31464;SDS011;18089;47.428;15.006;2022-12-07T03:00:54;26.90;;;21.90;;
31464;SDS011;18089;47.428;15.006;2022-12-07T03:03:33;27.77;;;23.00;;
31464;SDS011;18089;47.428;15.006;2022-12-07T03:06:08;23.50;;;21.00;;
31464;SDS011;18089;47.428;15.006;2022-12-07T03:08:44;24.07;;;21.47;;
31464;SDS011;18089;47.428;15.006;2022-12-07T03:11:22;27.93;;;22.07;;
31464;SDS011;18089;47.428;15.006;2022-12-07T03:13:58;24.27;;;21.73;;
31464;SDS011;18089;47.428;15.006;2022-12-07T03:16:35;23.40;;;20.73;;
31464;SDS011;18089;47.428;15.006;2022-12-07T03:19:11;22.07;;;19.60;;
31464;SDS011;18089;47.428;15.006;2022-12-07T03:21:45;21.47;;;19.23;;
31464;SDS011;18089;47.428;15.006;2022-12-07T03:24:19;21.97;;;19.67;;
31464;SDS011;18089;47.428;15.006;2022-12-07T03:26:55;22.67;;;20.27;;
31464;SDS011;18089;47.428;15.006;2022-12-07T03:29:32;21.77;;;19.57;;
31464;SDS011;18089;47.428;15.006;2022-12-07T03:32:08;21.17;;;18.97;;
31464;SDS011;18089;47.428;15.006;2022-12-07T03:34:44;21.40;;;19.20;;
31464;SDS011;18089;47.428;15.006;2022-12-07T03:37:18;21.90;;;19.73;;
31464;SDS011;18089;47.428;15.006;2022-12-07T03:39:56;20.90;;;18.80;;
31464;SDS011;18089;47.428;15.006;2022-12-07T03:42:30;21.83;;;19.57;;
31464;SDS011;18089;47.428;15.006;2022-12-07T03:45:04;20.97;;;18.87;;
31464;SDS011;18089;47.428;15.006;2022-12-07T03:47:41;20.83;;;18.73;;
31464;SDS011;18089;47.428;15.006;2022-12-07T03:50:22;21.33;;;19.03;;
31464;SDS011;18089;47.428;15.006;2022-12-07T03:52:58;21.03;;;18.93;;
31464;SDS011;18089;47.428;15.006;2022-12-07T03:55:34;21.37;;;19.07;;
31464;SDS011;18089;47.428;15.006;2022-12-07T03:58:09;22.27;;;20.07;;
31464;SDS011;18089;47.428;15.006;2022-12-07T04:00:43;22.70;;;20.17;;
31464;SDS011;18089;47.428;15.006;2022-12-07T04:03:17;21.47;;;19.27;;
31464;SDS011;18089;47.428;15.006;2022-12-07T04:05:49;22.13;;;19.73;;
31464;SDS011;18089;47.428;15.006;2022-12-07T04:08:21;22.27;;;19.97;;
31464;SDS011;18089;47.428;15.006;2022-12-07T04:10:53;23.07;;;20.17;;
31464;SDS011;18089;47.428;15.006;2022-12-07T04:13:25;26.57;;;21.07;;
31464;SDS011;18089;47.428;15.006;2022-12-07T04:15:57;24.27;;;20.77;;
31464;SDS011;18089;47.428;15.006;2022-12-07T04:18:30;22.07;;;19.77;;
31464;SDS011;18089;47.428;15.006;2022-12-07T04:21:02;21.90;;;19.70;;
31464;SDS011;18089;47.428;15.006;2022-12-07T04:23:34;22.50;;;19.77;;
31464;SDS011;18089;47.428;15.006;2022-12-07T04:26:06;21.50;;;19.30;;
31464;SDS011;18089;47.428;15.006;2022-12-07T04:28:38;21.23;;;19.03;;
31464;SDS011;18089;47.428;15.006;2022-12-07T04:31:10;22.87;;;19.70;;
31464;SDS011;18089;47.428;15.006;2022-12-07T04:33:43;21.40;;;19.20;;
31464;SDS011;18089;47.428;15.006;2022-12-07T04:36:15;22.53;;;20.13;;
31464;SDS011;18089;47.428;15.006;2022-12-07T04:38:49;21.80;;;19.50;;
31464;SDS011;18089;47.428;15.006;2022-12-07T04:41:24;22.83;;;20.37;;
31464;SDS011;18089;47.428;15.006;2022-12-07T04:43:58;21.90;;;19.73;;
31464;SDS011;18089;47.428;15.006;2022-12-07T04:46:31;23.43;;;20.93;;
31464;SDS011;18089;47.428;15.006;2022-12-07T04:49:05;21.97;;;19.67;;
31464;SDS011;18089;47.428;15.006;2022-12-07T04:51:37;23.13;;;19.60;;
31464;SDS011;18089;47.428;15.006;2022-12-07T04:54:09;23.37;;;19.77;;
31464;SDS011;18089;47.428;15.006;2022-12-07T04:56:41;22.23;;;19.83;;
31464;SDS011;18089;47.428;15.006;2022-12-07T04:59:14;24.77;;;19.90;;
31464;SDS011;18089;47.428;15.006;2022-12-07T05:01:46;21.87;;;19.53;;
31464;SDS011;18089;47.428;15.006;2022-12-07T05:04:20;21.50;;;19.20;;
31464;SDS011;18089;47.428;15.006;2022-12-07T05:06:52;22.10;;;19.77;;
31464;SDS011;18089;47.428;15.006;2022-12-07T05:09:24;21.20;;;19.00;;
31464;SDS011;18089;47.428;15.006;2022-12-07T05:11:56;22.50;;;20.10;;
31464;SDS011;18089;47.428;15.006;2022-12-07T05:14:28;22.37;;;19.97;;
31464;SDS011;18089;47.428;15.006;2022-12-07T05:17:00;20.90;;;18.77;;
31464;SDS011;18089;47.428;15.006;2022-12-07T05:19:33;21.77;;;19.20;;
31464;SDS011;18089;47.428;15.006;2022-12-07T05:22:05;22.03;;;19.63;;
31464;SDS011;18089;47.428;15.006;2022-12-07T05:24:37;22.13;;;19.87;;
31464;SDS011;18089;47.428;15.006;2022-12-07T05:27:09;21.40;;;18.80;;
31464;SDS011;18089;47.428;15.006;2022-12-07T05:29:41;21.67;;;19.40;;
31464;SDS011;18089;47.428;15.006;2022-12-07T05:32:13;23.23;;;19.17;;
31464;SDS011;18089;47.428;15.006;2022-12-07T05:34:46;22.33;;;19.50;;
31464;SDS011;18089;47.428;15.006;2022-12-07T05:37:18;20.70;;;18.53;;
31464;SDS011;18089;47.428;15.006;2022-12-07T05:39:50;57.63;;;33.43;;
31464;SDS011;18089;47.428;15.006;2022-12-07T05:42:22;33.20;;;23.33;;
31464;SDS011;18089;47.428;15.006;2022-12-07T05:44:54;23.40;;;20.17;;
31464;SDS011;18089;47.428;15.006;2022-12-07T05:47:26;24.63;;;20.20;;
31464;SDS011;18089;47.428;15.006;2022-12-07T05:50:00;25.87;;;22.77;;
31464;SDS011;18089;47.428;15.006;2022-12-07T05:52:32;28.67;;;23.90;;
31464;SDS011;18089;47.428;15.006;2022-12-07T05:55:04;26.80;;;23.40;;
31464;SDS011;18089;47.428;15.006;2022-12-07T05:57:37;26.90;;;23.37;;
31464;SDS011;18089;47.428;15.006;2022-12-07T06:00:10;22.93;;;20.50;;
31464;SDS011;18089;47.428;15.006;2022-12-07T06:02:42;22.97;;;20.43;;
31464;SDS011;18089;47.428;15.006;2022-12-07T06:05:15;23.13;;;20.73;;
31464;SDS011;18089;47.428;15.006;2022-12-07T06:07:47;27.10;;;21.27;;
31464;SDS011;18089;47.428;15.006;2022-12-07T06:10:19;24.30;;;21.03;;
31464;SDS011;18089;47.428;15.006;2022-12-07T06:12:51;24.90;;;20.07;;
31464;SDS011;18089;47.428;15.006;2022-12-07T06:15:22;22.57;;;20.23;;
31464;SDS011;18089;47.428;15.006;2022-12-07T06:17:54;21.23;;;19.00;;
31464;SDS011;18089;47.428;15.006;2022-12-07T06:20:27;22.83;;;19.77;;
31464;SDS011;18089;47.428;15.006;2022-12-07T06:22:59;22.73;;;20.13;;
31464;SDS011;18089;47.428;15.006;2022-12-07T06:25:31;21.80;;;19.60;;
31464;SDS011;18089;47.428;15.006;2022-12-07T06:28:03;25.27;;;20.70;;
31464;SDS011;18089;47.428;15.006;2022-12-07T06:30:35;23.33;;;20.67;;
31464;SDS011;18089;47.428;15.006;2022-12-07T06:33:07;21.73;;;19.53;;
31464;SDS011;18089;47.428;15.006;2022-12-07T06:35:41;21.33;;;18.60;;
31464;SDS011;18089;47.428;15.006;2022-12-07T06:38:13;20.53;;;18.43;;
31464;SDS011;18089;47.428;15.006;2022-12-07T06:40:45;20.37;;;18.20;;
31464;SDS011;18089;47.428;15.006;2022-12-07T06:43:18;20.70;;;18.57;;
31464;SDS011;18089;47.428;15.006;2022-12-07T06:45:50;20.30;;;18.30;;
31464;SDS011;18089;47.428;15.006;2022-12-07T06:48:22;20.17;;;18.23;;
31464;SDS011;18089;47.428;15.006;2022-12-07T06:50:55;20.70;;;18.60;;
31464;SDS011;18089;47.428;15.006;2022-12-07T06:53:27;20.83;;;18.60;;
31464;SDS011;18089;47.428;15.006;2022-12-07T06:55:59;20.80;;;18.70;;
31464;SDS011;18089;47.428;15.006;2022-12-07T06:58:31;19.90;;;17.90;;
31464;SDS011;18089;47.428;15.006;2022-12-07T07:01:07;20.77;;;18.30;;
31464;SDS011;18089;47.428;15.006;2022-12-07T07:03:40;20.80;;;18.53;;
31464;SDS011;18089;47.428;15.006;2022-12-07T07:06:14;21.27;;;19.03;;
31464;SDS011;18089;47.428;15.006;2022-12-07T07:08:46;22.20;;;19.53;;
31464;SDS011;18089;47.428;15.006;2022-12-07T07:11:18;23.17;;;19.40;;
31464;SDS011;18089;47.428;15.006;2022-12-07T07:13:50;21.27;;;19.27;;
31464;SDS011;18089;47.428;15.006;2022-12-07T07:16:22;19.53;;;17.53;;
31464;SDS011;18089;47.428;15.006;2022-12-07T07:18:55;21.00;;;18.87;;
31464;SDS011;18089;47.428;15.006;2022-12-07T07:21:28;20.43;;;18.30;;
31464;SDS011;18089;47.428;15.006;2022-12-07T07:24:00;20.57;;;18.37;;
31464;SDS011;18089;47.428;15.006;2022-12-07T07:26:32;20.00;;;18.00;;
31464;SDS011;18089;47.428;15.006;2022-12-07T07:29:04;19.33;;;17.30;;
31464;SDS011;18089;47.428;15.006;2022-12-07T07:31:36;24.10;;;17.33;;
31464;SDS011;18089;47.428;15.006;2022-12-07T07:34:08;21.93;;;18.13;;
31464;SDS011;18089;47.428;15.006;2022-12-07T07:36:41;20.60;;;18.50;;
31464;SDS011;18089;47.428;15.006;2022-12-07T07:39:13;19.67;;;17.57;;
31464;SDS011;18089;47.428;15.006;2022-12-07T07:41:46;19.70;;;17.63;;
31464;SDS011;18089;47.428;15.006;2022-12-07T07:44:18;19.97;;;18.03;;
31464;SDS011;18089;47.428;15.006;2022-12-07T07:46:49;20.33;;;18.37;;
31464;SDS011;18089;47.428;15.006;2022-12-07T07:49:21;24.77;;;18.30;;
31464;SDS011;18089;47.428;15.006;2022-12-07T07:51:55;19.53;;;17.53;;
31464;SDS011;18089;47.428;15.006;2022-12-07T07:54:27;19.67;;;17.60;;
31464;SDS011;18089;47.428;15.006;2022-12-07T07:56:59;19.57;;;17.47;;
31464;SDS011;18089;47.428;15.006;2022-12-07T07:59:31;20.63;;;18.60;;
31464;SDS011;18089;47.428;15.006;2022-12-07T08:02:03;19.77;;;17.83;;
31464;SDS011;18089;47.428;15.006;2022-12-07T08:04:35;20.57;;;18.17;;
31464;SDS011;18089;47.428;15.006;2022-12-07T08:07:09;21.30;;;19.20;;
31464;SDS011;18089;47.428;15.006;2022-12-07T08:09:41;21.27;;;18.23;;
31464;SDS011;18089;47.428;15.006;2022-12-07T08:12:13;24.50;;;18.17;;
31464;SDS011;18089;47.428;15.006;2022-12-07T08:14:45;20.13;;;18.10;;
31464;SDS011;18089;47.428;15.006;2022-12-07T08:17:18;19.80;;;17.80;;
31464;SDS011;18089;47.428;15.006;2022-12-07T08:19:49;20.20;;;18.10;;
31464;SDS011;18089;47.428;15.006;2022-12-07T08:22:23;20.00;;;18.00;;
31464;SDS011;18089;47.428;15.006;2022-12-07T08:24:55;20.63;;;18.27;;
31464;SDS011;18089;47.428;15.006;2022-12-07T08:27:27;28.33;;;20.03;;
31464;SDS011;18089;47.428;15.006;2022-12-07T08:29:59;37.20;;;21.90;;
31464;SDS011;18089;47.428;15.006;2022-12-07T08:32:31;28.70;;;20.47;;
31464;SDS011;18089;47.428;15.006;2022-12-07T08:35:03;19.80;;;17.70;;
31464;SDS011;18089;47.428;15.006;2022-12-07T08:37:37;20.73;;;18.53;;
31464;SDS011;18089;47.428;15.006;2022-12-07T08:40:10;19.87;;;17.97;;
31464;SDS011;18089;47.428;15.006;2022-12-07T08:42:48;20.40;;;18.30;;
31464;SDS011;18089;47.428;15.006;2022-12-07T08:45:20;20.10;;;18.10;;
31464;SDS011;18089;47.428;15.006;2022-12-07T08:47:55;20.17;;;18.07;;
31464;SDS011;18089;47.428;15.006;2022-12-07T08:50:30;18.93;;;17.13;;
31464;SDS011;18089;47.428;15.006;2022-12-07T08:53:04;20.63;;;18.10;;
31464;SDS011;18089;47.428;15.006;2022-12-07T08:55:37;18.80;;;17.00;;
31464;SDS011;18089;47.428;15.006;2022-12-07T08:58:10;18.97;;;17.03;;
31464;SDS011;18089;47.428;15.006;2022-12-07T09:00:42;18.60;;;16.80;;
31464;SDS011;18089;47.428;15.006;2022-12-07T09:03:14;18.77;;;16.97;;
31464;SDS011;18089;47.428;15.006;2022-12-07T09:05:46;18.90;;;17.20;;
31464;SDS011;18089;47.428;15.006;2022-12-07T09:08:20;19.47;;;17.67;;
31464;SDS011;18089;47.428;15.006;2022-12-07T09:10:53;19.53;;;17.53;;
31464;SDS011;18089;47.428;15.006;2022-12-07T09:13:25;19.27;;;17.37;;
31464;SDS011;18089;47.428;15.006;2022-12-07T09:15:57;19.07;;;17.17;;
31464;SDS011;18089;47.428;15.006;2022-12-07T09:18:29;18.70;;;17.00;;
31464;SDS011;18089;47.428;15.006;2022-12-07T09:21:01;19.43;;;17.63;;
31464;SDS011;18089;47.428;15.006;2022-12-07T09:23:35;19.77;;;17.43;;
31464;SDS011;18089;47.428;15.006;2022-12-07T09:26:07;19.40;;;16.40;;
31464;SDS011;18089;47.428;15.006;2022-12-07T09:28:39;18.93;;;16.90;;
31464;SDS011;18089;47.428;15.006;2022-12-07T09:31:11;21.20;;;18.90;;
31464;SDS011;18089;47.428;15.006;2022-12-07T09:33:43;23.90;;;18.30;;
31464;SDS011;18089;47.428;15.006;2022-12-07T09:36:15;20.33;;;18.23;;
31464;SDS011;18089;47.428;15.006;2022-12-07T09:38:49;19.57;;;17.60;;
31464;SDS011;18089;47.428;15.006;2022-12-07T09:41:21;21.80;;;19.17;;
31464;SDS011;18089;47.428;15.006;2022-12-07T09:43:53;27.50;;;21.77;;
31464;SDS011;18089;47.428;15.006;2022-12-07T09:46:29;25.27;;;20.23;;
31464;SDS011;18089;47.428;15.006;2022-12-07T09:49:08;31.37;;;22.63;;
31464;SDS011;18089;47.428;15.006;2022-12-07T09:51:42;22.80;;;20.07;;
31464;SDS011;18089;47.428;15.006;2022-12-07T09:54:16;25.77;;;20.17;;
31464;SDS011;18089;47.428;15.006;2022-12-07T09:56:48;24.67;;;19.93;;
31464;SDS011;18089;47.428;15.006;2022-12-07T09:59:20;25.17;;;20.00;;
31464;SDS011;18089;47.428;15.006;2022-12-07T10:01:52;23.03;;;20.30;;
31464;SDS011;18089;47.428;15.006;2022-12-07T10:04:24;23.63;;;19.70;;
31464;SDS011;18089;47.428;15.006;2022-12-07T10:06:57;21.50;;;19.27;;
31464;SDS011;18089;47.428;15.006;2022-12-07T10:09:30;24.17;;;20.20;;
31464;SDS011;18089;47.428;15.006;2022-12-07T10:12:06;25.07;;;19.20;;
31464;SDS011;18089;47.428;15.006;2022-12-07T10:14:40;21.07;;;18.57;;
31464;SDS011;18089;47.428;15.006;2022-12-07T10:17:27;23.23;;;19.13;;
31464;SDS011;18089;47.428;15.006;2022-12-07T10:20:14;22.07;;;18.07;;
31464;SDS011;18089;47.428;15.006;2022-12-07T10:22:55;21.90;;;19.63;;
31464;SDS011;18089;47.428;15.006;2022-12-07T10:25:31;22.43;;;19.77;;
31464;SDS011;18089;47.428;15.006;2022-12-07T10:28:14;19.10;;;17.20;;
31464;SDS011;18089;47.428;15.006;2022-12-07T10:30:52;20.57;;;18.57;;
31464;SDS011;18089;47.428;15.006;2022-12-07T10:33:30;19.53;;;17.50;;
31464;SDS011;18089;47.428;15.006;2022-12-07T10:36:16;33.20;;;26.67;;
31464;SDS011;18089;47.428;15.006;2022-12-07T10:38:51;34.00;;;26.67;;
31464;SDS011;18089;47.428;15.006;2022-12-07T10:41:25;26.03;;;19.47;;
31464;SDS011;18089;47.428;15.006;2022-12-07T10:43:57;20.43;;;18.43;;
31464;SDS011;18089;47.428;15.006;2022-12-07T10:52:46;21.13;;;18.77;;
31464;SDS011;18089;47.428;15.006;2022-12-07T10:55:29;22.53;;;19.07;;
31464;SDS011;18089;47.428;15.006;2022-12-07T10:58:15;21.67;;;19.47;;
31464;SDS011;18089;47.428;15.006;2022-12-07T11:00:58;21.27;;;19.07;;
31464;SDS011;18089;47.428;15.006;2022-12-07T11:06:32;21.07;;;18.87;;
31464;SDS011;18089;47.428;15.006;2022-12-07T11:12:18;20.33;;;18.23;;
31464;SDS011;18089;47.428;15.006;2022-12-07T11:14:58;20.03;;;17.80;;
31464;SDS011;18089;47.428;15.006;2022-12-07T11:17:34;23.70;;;19.47;;
31464;SDS011;18089;47.428;15.006;2022-12-07T11:20:12;21.63;;;18.90;;
31464;SDS011;18089;47.428;15.006;2022-12-07T11:22:51;20.67;;;18.47;;
31464;SDS011;18089;47.428;15.006;2022-12-07T11:25:27;27.60;;;20.47;;
31464;SDS011;18089;47.428;15.006;2022-12-07T11:28:07;22.20;;;19.43;;
31464;SDS011;18089;47.428;15.006;2022-12-07T11:30:51;20.40;;;18.27;;
31464;SDS011;18089;47.428;15.006;2022-12-07T11:33:29;20.40;;;18.30;;
31464;SDS011;18089;47.428;15.006;2022-12-07T11:36:08;21.43;;;19.23;;
31464;SDS011;18089;47.428;15.006;2022-12-07T11:39:02;20.90;;;18.57;;
31464;SDS011;18089;47.428;15.006;2022-12-07T11:41:35;21.53;;;19.33;;
31464;SDS011;18089;47.428;15.006;2022-12-07T11:44:14;20.77;;;18.57;;
31464;SDS011;18089;47.428;15.006;2022-12-07T11:46:55;21.93;;;19.80;;
31464;SDS011;18089;47.428;15.006;2022-12-07T11:49:35;22.27;;;19.87;;
31464;SDS011;18089;47.428;15.006;2022-12-07T11:52:14;21.97;;;19.77;;
31464;SDS011;18089;47.428;15.006;2022-12-07T11:54:52;23.93;;;20.17;;
31464;SDS011;18089;47.428;15.006;2022-12-07T11:57:26;24.53;;;20.37;;
31464;SDS011;18089;47.428;15.006;2022-12-07T12:00:12;23.30;;;18.67;;
31464;SDS011;18089;47.428;15.006;2022-12-07T12:02:48;21.83;;;18.57;;
31464;SDS011;18089;47.428;15.006;2022-12-07T12:05:22;23.63;;;18.30;;
31464;SDS011;18089;47.428;15.006;2022-12-07T12:07:58;26.77;;;18.97;;
31464;SDS011;18089;47.428;15.006;2022-12-07T12:10:36;23.08;;;19.48;;
31464;SDS011;18089;47.428;15.006;2022-12-07T12:13:21;20.47;;;18.23;;
31464;SDS011;18089;47.428;15.006;2022-12-07T12:16:12;23.92;;;19.13;;
31464;SDS011;18089;47.428;15.006;2022-12-07T12:18:54;20.40;;;17.80;;
31464;SDS011;18089;47.428;15.006;2022-12-07T12:21:33;22.90;;;16.80;;
31464;SDS011;18089;47.428;15.006;2022-12-07T12:24:09;18.48;;;16.52;;
31464;SDS011;18089;47.428;15.006;2022-12-07T12:26:48;18.20;;;16.30;;
31464;SDS011;18089;47.428;15.006;2022-12-07T12:29:23;21.00;;;17.20;;
31464;SDS011;18089;47.428;15.006;2022-12-07T12:32:05;20.48;;;17.77;;
31464;SDS011;18089;47.428;15.006;2022-12-07T12:34:42;20.40;;;17.65;;
31464;SDS011;18089;47.428;15.006;2022-12-07T12:37:43;19.52;;;15.65;;
31464;SDS011;18089;47.428;15.006;2022-12-07T12:58:42;18.42;;;16.05;;
31464;SDS011;18089;47.428;15.006;2022-12-07T13:04:17;22.75;;;18.67;;
31464;SDS011;18089;47.428;15.006;2022-12-07T13:06:56;20.80;;;18.55;;
31464;SDS011;18089;47.428;15.006;2022-12-07T13:09:29;19.77;;;17.67;;
31464;SDS011;18089;47.428;15.006;2022-12-07T13:12:03;20.55;;;17.25;;
31464;SDS011;18089;47.428;15.006;2022-12-07T13:14:43;23.63;;;18.17;;
31464;SDS011;18089;47.428;15.006;2022-12-07T13:20:40;31.83;;;18.35;;
31464;SDS011;18089;47.428;15.006;2022-12-07T13:23:25;25.65;;;18.83;;
31464;SDS011;18089;47.428;15.006;2022-12-07T13:29:04;20.80;;;17.70;;
31464;SDS011;18089;47.428;15.006;2022-12-07T13:31:41;22.45;;;17.92;;
31464;SDS011;18089;47.428;15.006;2022-12-07T13:34:28;22.73;;;18.40;;
31464;SDS011;18089;47.428;15.006;2022-12-07T13:37:01;22.20;;;18.50;;
31464;SDS011;18089;47.428;15.006;2022-12-07T13:39:44;21.52;;;19.02;;
31464;SDS011;18089;47.428;15.006;2022-12-07T13:42:18;23.23;;;18.63;;
31464;SDS011;18089;47.428;15.006;2022-12-07T13:44:53;24.10;;;20.33;;
31464;SDS011;18089;47.428;15.006;2022-12-07T13:47:28;22.52;;;19.52;;
31464;SDS011;18089;47.428;15.006;2022-12-07T13:50:21;30.40;;;23.45;;
31464;SDS011;18089;47.428;15.006;2022-12-07T13:52:54;23.45;;;19.70;;
31464;SDS011;18089;47.428;15.006;2022-12-07T13:55:28;22.90;;;19.33;;
31464;SDS011;18089;47.428;15.006;2022-12-07T13:58:01;25.73;;;20.80;;
31464;SDS011;18089;47.428;15.006;2022-12-07T14:00:33;27.00;;;20.60;;
31464;SDS011;18089;47.428;15.006;2022-12-07T14:03:20;30.10;;;21.43;;
31464;SDS011;18089;47.428;15.006;2022-12-07T14:06:13;29.83;;;21.08;;
31464;SDS011;18089;47.428;15.006;2022-12-07T14:08:49;33.08;;;23.60;;
31464;SDS011;18089;47.428;15.006;2022-12-07T14:11:23;35.90;;;22.30;;
31464;SDS011;18089;47.428;15.006;2022-12-07T14:14:01;28.23;;;20.73;;
31464;SDS011;18089;47.428;15.006;2022-12-07T14:16:34;29.10;;;21.10;;
31464;SDS011;18089;47.428;15.006;2022-12-07T14:19:39;24.02;;;19.17;;
31464;SDS011;18089;47.428;15.006;2022-12-07T14:22:19;25.80;;;19.77;;
31464;SDS011;18089;47.428;15.006;2022-12-07T14:25:11;29.97;;;21.43;;
31464;SDS011;18089;47.428;15.006;2022-12-07T14:27:52;29.83;;;20.97;;
31464;SDS011;18089;47.428;15.006;2022-12-07T14:30:28;23.83;;;20.37;;
31464;SDS011;18089;47.428;15.006;2022-12-07T14:33:01;26.17;;;21.03;;
31464;SDS011;18089;47.428;15.006;2022-12-07T14:35:34;27.30;;;20.20;;
31464;SDS011;18089;47.428;15.006;2022-12-07T14:38:10;26.83;;;20.70;;
31464;SDS011;18089;47.428;15.006;2022-12-07T14:40:42;28.60;;;20.83;;
31464;SDS011;18089;47.428;15.006;2022-12-07T14:43:16;36.30;;;22.90;;
31464;SDS011;18089;47.428;15.006;2022-12-07T14:45:48;31.83;;;23.37;;
31464;SDS011;18089;47.428;15.006;2022-12-07T14:48:20;32.90;;;24.33;;
31464;SDS011;18089;47.428;15.006;2022-12-07T14:50:52;30.00;;;22.47;;
31464;SDS011;18089;47.428;15.006;2022-12-07T14:53:27;28.20;;;21.87;;
31464;SDS011;18089;47.428;15.006;2022-12-07T14:56:00;30.13;;;20.17;;
31464;SDS011;18089;47.428;15.006;2022-12-07T14:58:36;26.57;;;21.10;;
31464;SDS011;18089;47.428;15.006;2022-12-07T15:01:08;29.97;;;21.53;;
31464;SDS011;18089;47.428;15.006;2022-12-07T15:03:40;36.13;;;25.13;;
31464;SDS011;18089;47.428;15.006;2022-12-07T15:06:13;25.97;;;22.17;;
31464;SDS011;18089;47.428;15.006;2022-12-07T15:08:46;32.53;;;24.40;;
31464;SDS011;18089;47.428;15.006;2022-12-07T15:11:18;32.23;;;24.00;;
31464;SDS011;18089;47.428;15.006;2022-12-07T15:13:52;37.53;;;25.40;;
31464;SDS011;18089;47.428;15.006;2022-12-07T15:16:44;36.23;;;25.03;;
31464;SDS011;18089;47.428;15.006;2022-12-07T15:19:17;39.47;;;24.77;;
31464;SDS011;18089;47.428;15.006;2022-12-07T15:21:53;37.57;;;25.13;;
31464;SDS011;18089;47.428;15.006;2022-12-07T15:24:25;34.03;;;24.87;;
31464;SDS011;18089;47.428;15.006;2022-12-07T15:26:57;34.23;;;24.83;;
31464;SDS011;18089;47.428;15.006;2022-12-07T15:29:31;38.73;;;27.20;;
31464;SDS011;18089;47.428;15.006;2022-12-07T15:32:03;52.00;;;32.90;;
31464;SDS011;18089;47.428;15.006;2022-12-07T15:34:35;44.30;;;29.50;;
31464;SDS011;18089;47.428;15.006;2022-12-07T15:37:07;41.10;;;29.37;;
31464;SDS011;18089;47.428;15.006;2022-12-07T15:39:39;41.23;;;27.83;;